Albion, Arkansas
Current Conditions -  °F | °C
As of 3:56 AM on Thursday 29 Jan 2015 (Local Time) from KSRC Reporting Station
Clear Clear  
Wind Chill: 13°   Ceiling: Unl
Heat Index: 13°   Visibility: 10mi
Dew Point:   Wind: 8mph
Humidity: 64%   Direction: 220°SW
Pressure: 30"   Gusts: NA
Location:  35.2662°N, 91.8491°W
Report Text: KSRC 290956Z AUTO 22007KT 10SM CLR 13/06 A3000 RMK AO2 SLP165 T01280061 TSNO
Loading
Personal Weather Stations






























Interactive Weather Map New forecast layout! Learn more

10-Day Weather Forecast

Advertisements
Track Severe Weather on mobile